sensor_id;sensor_type;location;lat;lon;timestamp;temperature;humidity
24011;DHT22;12217;50.792;4.372;2023-12-14T00:00:21;11.70;99.90
24011;DHT22;12217;50.792;4.372;2023-12-14T00:02:46;11.70;99.90
24011;DHT22;12217;50.792;4.372;2023-12-14T00:05:12;11.70;99.90
24011;DHT22;12217;50.792;4.372;2023-12-14T00:07:38;11.60;99.90
24011;DHT22;12217;50.792;4.372;2023-12-14T00:10:04;11.60;99.90
24011;DHT22;12217;50.792;4.372;2023-12-14T00:12:31;11.50;99.90
24011;DHT22;12217;50.792;4.372;2023-12-14T00:14:56;11.60;99.90
24011;DHT22;12217;50.792;4.372;2023-12-14T00:17:24;11.60;99.90
24011;DHT22;12217;50.792;4.372;2023-12-14T00:19:49;11.60;99.90
24011;DHT22;12217;50.792;4.372;2023-12-14T00:22:16;11.50;99.90
24011;DHT22;12217;50.792;4.372;2023-12-14T00:24:41;11.50;99.90
24011;DHT22;12217;50.792;4.372;2023-12-14T00:27:08;11.60;99.90
24011;DHT22;12217;50.792;4.372;2023-12-14T00:29:33;11.60;99.90
24011;DHT22;12217;50.792;4.372;2023-12-14T00:31:59;11.70;99.90
24011;DHT22;12217;50.792;4.372;2023-12-14T00:34:24;11.70;99.90
24011;DHT22;12217;50.792;4.372;2023-12-14T00:36:50;11.60;99.90
24011;DHT22;12217;50.792;4.372;2023-12-14T00:39:16;11.50;99.90
24011;DHT22;12217;50.792;4.372;2023-12-14T00:41:41;11.30;99.90
24011;DHT22;12217;50.792;4.372;2023-12-14T00:44:07;11.40;99.90
24011;DHT22;12217;50.792;4.372;2023-12-14T00:46:32;11.50;99.90
24011;DHT22;12217;50.792;4.372;2023-12-14T00:48:58;11.50;99.90
24011;DHT22;12217;50.792;4.372;2023-12-14T00:51:24;11.50;99.90
24011;DHT22;12217;50.792;4.372;2023-12-14T00:53:49;11.50;99.90
24011;DHT22;12217;50.792;4.372;2023-12-14T00:56:15;11.40;99.90
24011;DHT22;12217;50.792;4.372;2023-12-14T00:58:40;11.50;99.90
24011;DHT22;12217;50.792;4.372;2023-12-14T01:01:06;11.60;99.90
24011;DHT22;12217;50.792;4.372;2023-12-14T01:03:33;11.50;99.90
24011;DHT22;12217;50.792;4.372;2023-12-14T01:05:59;11.40;99.90
24011;DHT22;12217;50.792;4.372;2023-12-14T01:08:25;11.50;99.90
24011;DHT22;12217;50.792;4.372;2023-12-14T01:10:50;11.60;99.90
24011;DHT22;12217;50.792;4.372;2023-12-14T01:13:16;11.60;99.90
24011;DHT22;12217;50.792;4.372;2023-12-14T01:15:42;11.60;99.90
24011;DHT22;12217;50.792;4.372;2023-12-14T01:18:07;11.50;99.90
24011;DHT22;12217;50.792;4.372;2023-12-14T01:20:33;11.50;99.90
24011;DHT22;12217;50.792;4.372;2023-12-14T01:22:58;11.60;99.90
24011;DHT22;12217;50.792;4.372;2023-12-14T01:25:24;11.40;99.90
24011;DHT22;12217;50.792;4.372;2023-12-14T01:27:50;11.30;99.90
24011;DHT22;12217;50.792;4.372;2023-12-14T01:30:15;11.20;99.90
24011;DHT22;12217;50.792;4.372;2023-12-14T01:32:41;11.00;99.90
24011;DHT22;12217;50.792;4.372;2023-12-14T01:35:13;11.10;99.90
24011;DHT22;12217;50.792;4.372;2023-12-14T01:37:38;11.40;99.90
24011;DHT22;12217;50.792;4.372;2023-12-14T01:40:05;11.50;99.90
24011;DHT22;12217;50.792;4.372;2023-12-14T01:42:31;11.50;99.90
24011;DHT22;12217;50.792;4.372;2023-12-14T01:44:57;11.20;99.90
24011;DHT22;12217;50.792;4.372;2023-12-14T01:47:22;11.20;99.90
24011;DHT22;12217;50.792;4.372;2023-12-14T01:49:48;11.10;99.90
24011;DHT22;12217;50.792;4.372;2023-12-14T01:52:14;11.10;99.90
24011;DHT22;12217;50.792;4.372;2023-12-14T01:54:40;11.00;99.90
24011;DHT22;12217;50.792;4.372;2023-12-14T01:57:05;10.90;99.90
24011;DHT22;12217;50.792;4.372;2023-12-14T01:59:31;10.80;99.90
24011;DHT22;12217;50.792;4.372;2023-12-14T02:01:58;11.00;99.90
24011;DHT22;12217;50.792;4.372;2023-12-14T02:04:25;10.90;99.90
24011;DHT22;12217;50.792;4.372;2023-12-14T02:06:51;10.90;99.90
24011;DHT22;12217;50.792;4.372;2023-12-14T02:09:17;10.90;99.90
24011;DHT22;12217;50.792;4.372;2023-12-14T02:11:42;10.80;99.90
24011;DHT22;12217;50.792;4.372;2023-12-14T02:14:09;10.80;99.90
24011;DHT22;12217;50.792;4.372;2023-12-14T02:16:35;10.80;99.90
24011;DHT22;12217;50.792;4.372;2023-12-14T02:19:04;10.90;99.90
24011;DHT22;12217;50.792;4.372;2023-12-14T02:21:29;10.80;99.90
24011;DHT22;12217;50.792;4.372;2023-12-14T02:23:55;10.80;99.90
24011;DHT22;12217;50.792;4.372;2023-12-14T02:26:21;10.90;99.90
24011;DHT22;12217;50.792;4.372;2023-12-14T02:28:46;10.80;99.90
24011;DHT22;12217;50.792;4.372;2023-12-14T02:31:12;10.60;99.90
24011;DHT22;12217;50.792;4.372;2023-12-14T02:33:37;10.60;99.90
24011;DHT22;12217;50.792;4.372;2023-12-14T02:36:03;10.70;99.90
24011;DHT22;12217;50.792;4.372;2023-12-14T02:38:29;10.70;99.90
24011;DHT22;12217;50.792;4.372;2023-12-14T02:40:55;10.80;99.90
24011;DHT22;12217;50.792;4.372;2023-12-14T02:43:21;11.00;99.90
24011;DHT22;12217;50.792;4.372;2023-12-14T02:45:49;11.00;99.90
24011;DHT22;12217;50.792;4.372;2023-12-14T02:48:14;10.90;99.90
24011;DHT22;12217;50.792;4.372;2023-12-14T02:50:40;10.70;99.90
24011;DHT22;12217;50.792;4.372;2023-12-14T02:53:06;10.70;99.90
24011;DHT22;12217;50.792;4.372;2023-12-14T02:55:31;10.70;99.90
24011;DHT22;12217;50.792;4.372;2023-12-14T02:57:57;10.60;99.90
24011;DHT22;12217;50.792;4.372;2023-12-14T03:00:23;10.70;99.90
24011;DHT22;12217;50.792;4.372;2023-12-14T03:02:48;10.80;99.90
24011;DHT22;12217;50.792;4.372;2023-12-14T03:05:15;10.80;99.90
24011;DHT22;12217;50.792;4.372;2023-12-14T03:07:41;10.80;99.90
24011;DHT22;12217;50.792;4.372;2023-12-14T03:10:07;10.80;99.90
24011;DHT22;12217;50.792;4.372;2023-12-14T03:12:33;10.80;99.90
24011;DHT22;12217;50.792;4.372;2023-12-14T03:14:58;10.70;99.90
24011;DHT22;12217;50.792;4.372;2023-12-14T03:17:24;10.50;99.90
24011;DHT22;12217;50.792;4.372;2023-12-14T03:19:50;10.60;99.90
24011;DHT22;12217;50.792;4.372;2023-12-14T03:22:15;10.80;99.90
24011;DHT22;12217;50.792;4.372;2023-12-14T03:24:42;10.60;99.90
24011;DHT22;12217;50.792;4.372;2023-12-14T03:27:07;10.80;99.90
24011;DHT22;12217;50.792;4.372;2023-12-14T03:29:33;11.00;99.90
24011;DHT22;12217;50.792;4.372;2023-12-14T03:31:58;10.70;99.90
24011;DHT22;12217;50.792;4.372;2023-12-14T03:34:25;10.70;99.90
24011;DHT22;12217;50.792;4.372;2023-12-14T03:36:51;10.60;99.90
24011;DHT22;12217;50.792;4.372;2023-12-14T03:39:17;10.60;99.90
24011;DHT22;12217;50.792;4.372;2023-12-14T03:41:43;10.60;99.90
24011;DHT22;12217;50.792;4.372;2023-12-14T03:44:09;10.60;99.90
24011;DHT22;12217;50.792;4.372;2023-12-14T03:46:34;10.50;99.90
24011;DHT22;12217;50.792;4.372;2023-12-14T03:49:01;10.40;99.90
24011;DHT22;12217;50.792;4.372;2023-12-14T03:51:27;10.40;99.90
24011;DHT22;12217;50.792;4.372;2023-12-14T03:53:52;10.20;99.90
24011;DHT22;12217;50.792;4.372;2023-12-14T03:56:18;10.00;99.90
24011;DHT22;12217;50.792;4.372;2023-12-14T03:58:44;9.90;99.90
24011;DHT22;12217;50.792;4.372;2023-12-14T04:01:19;9.60;99.90
24011;DHT22;12217;50.792;4.372;2023-12-14T04:03:45;9.40;99.90
24011;DHT22;12217;50.792;4.372;2023-12-14T04:06:12;9.40;99.90
24011;DHT22;12217;50.792;4.372;2023-12-14T04:08:38;9.40;99.90
24011;DHT22;12217;50.792;4.372;2023-12-14T04:11:06;9.40;99.90
24011;DHT22;12217;50.792;4.372;2023-12-14T04:13:32;9.50;99.90
24011;DHT22;12217;50.792;4.372;2023-12-14T04:15:58;9.40;99.90
24011;DHT22;12217;50.792;4.372;2023-12-14T04:18:24;9.30;99.90
24011;DHT22;12217;50.792;4.372;2023-12-14T04:20:49;9.40;99.90
24011;DHT22;12217;50.792;4.372;2023-12-14T04:23:15;9.30;99.90
24011;DHT22;12217;50.792;4.372;2023-12-14T04:25:41;9.20;99.90
24011;DHT22;12217;50.792;4.372;2023-12-14T04:28:06;8.90;99.90
24011;DHT22;12217;50.792;4.372;2023-12-14T04:30:32;8.90;99.90
24011;DHT22;12217;50.792;4.372;2023-12-14T04:32:57;9.00;99.90
24011;DHT22;12217;50.792;4.372;2023-12-14T04:35:23;9.00;99.90
24011;DHT22;12217;50.792;4.372;2023-12-14T04:37:49;8.80;99.90
24011;DHT22;12217;50.792;4.372;2023-12-14T04:40:15;8.70;99.90
24011;DHT22;12217;50.792;4.372;2023-12-14T04:42:40;8.80;99.90
24011;DHT22;12217;50.792;4.372;2023-12-14T04:45:06;8.80;99.90
24011;DHT22;12217;50.792;4.372;2023-12-14T04:47:34;8.80;99.90
24011;DHT22;12217;50.792;4.372;2023-12-14T04:50:00;9.00;99.90
24011;DHT22;12217;50.792;4.372;2023-12-14T04:52:26;9.00;99.90
24011;DHT22;12217;50.792;4.372;2023-12-14T04:54:52;9.10;99.90
24011;DHT22;12217;50.792;4.372;2023-12-14T04:57:17;9.20;99.90
24011;DHT22;12217;50.792;4.372;2023-12-14T04:59:43;9.10;99.90
24011;DHT22;12217;50.792;4.372;2023-12-14T05:02:09;9.10;99.90
24011;DHT22;12217;50.792;4.372;2023-12-14T05:04:35;9.00;99.90
24011;DHT22;12217;50.792;4.372;2023-12-14T05:07:00;9.00;99.90
24011;DHT22;12217;50.792;4.372;2023-12-14T05:09:26;9.00;99.90
24011;DHT22;12217;50.792;4.372;2023-12-14T05:11:52;9.10;99.90
24011;DHT22;12217;50.792;4.372;2023-12-14T05:14:18;9.30;99.90
24011;DHT22;12217;50.792;4.372;2023-12-14T05:16:44;9.30;99.90
24011;DHT22;12217;50.792;4.372;2023-12-14T05:19:09;9.40;99.90
24011;DHT22;12217;50.792;4.372;2023-12-14T05:21:35;9.40;99.90
24011;DHT22;12217;50.792;4.372;2023-12-14T05:24:01;9.20;99.90
24011;DHT22;12217;50.792;4.372;2023-12-14T05:26:27;9.10;99.90
24011;DHT22;12217;50.792;4.372;2023-12-14T05:28:55;9.10;99.90
24011;DHT22;12217;50.792;4.372;2023-12-14T05:31:21;9.40;99.90
24011;DHT22;12217;50.792;4.372;2023-12-14T05:33:46;9.60;99.90
24011;DHT22;12217;50.792;4.372;2023-12-14T05:36:12;9.30;99.90
24011;DHT22;12217;50.792;4.372;2023-12-14T05:38:41;9.20;99.90
24011;DHT22;12217;50.792;4.372;2023-12-14T05:41:07;9.20;99.90
24011;DHT22;12217;50.792;4.372;2023-12-14T05:43:33;9.00;99.90
24011;DHT22;12217;50.792;4.372;2023-12-14T05:45:58;9.20;99.90
24011;DHT22;12217;50.792;4.372;2023-12-14T05:48:24;9.20;99.90
24011;DHT22;12217;50.792;4.372;2023-12-14T05:50:54;9.10;99.90
24011;DHT22;12217;50.792;4.372;2023-12-14T05:53:20;9.00;99.90
24011;DHT22;12217;50.792;4.372;2023-12-14T05:55:46;9.10;99.90
24011;DHT22;12217;50.792;4.372;2023-12-14T05:58:12;9.20;99.90
24011;DHT22;12217;50.792;4.372;2023-12-14T06:00:37;9.20;99.90
24011;DHT22;12217;50.792;4.372;2023-12-14T06:03:04;9.20;99.90
24011;DHT22;12217;50.792;4.372;2023-12-14T06:05:30;9.30;99.90
24011;DHT22;12217;50.792;4.372;2023-12-14T06:07:56;9.30;99.90
24011;DHT22;12217;50.792;4.372;2023-12-14T06:10:22;9.10;99.90
24011;DHT22;12217;50.792;4.372;2023-12-14T06:12:48;9.00;99.90
24011;DHT22;12217;50.792;4.372;2023-12-14T06:15:13;9.00;99.90
24011;DHT22;12217;50.792;4.372;2023-12-14T06:17:39;8.90;99.90
24011;DHT22;12217;50.792;4.372;2023-12-14T06:20:07;9.00;99.90
24011;DHT22;12217;50.792;4.372;2023-12-14T06:22:36;9.10;99.90
24011;DHT22;12217;50.792;4.372;2023-12-14T06:25:02;9.10;99.90
24011;DHT22;12217;50.792;4.372;2023-12-14T06:27:28;9.00;99.90
24011;DHT22;12217;50.792;4.372;2023-12-14T06:29:54;9.00;99.90
24011;DHT22;12217;50.792;4.372;2023-12-14T06:32:20;9.10;99.90
24011;DHT22;12217;50.792;4.372;2023-12-14T06:34:45;9.20;99.90
24011;DHT22;12217;50.792;4.372;2023-12-14T06:37:11;9.10;99.90
24011;DHT22;12217;50.792;4.372;2023-12-14T06:39:37;9.30;99.90
24011;DHT22;12217;50.792;4.372;2023-12-14T06:42:02;9.30;99.90
24011;DHT22;12217;50.792;4.372;2023-12-14T06:44:28;9.40;99.90
24011;DHT22;12217;50.792;4.372;2023-12-14T06:46:55;9.20;99.90
24011;DHT22;12217;50.792;4.372;2023-12-14T06:49:23;9.10;99.90
24011;DHT22;12217;50.792;4.372;2023-12-14T06:51:49;9.20;99.90
24011;DHT22;12217;50.792;4.372;2023-12-14T06:54:15;9.40;99.90
24011;DHT22;12217;50.792;4.372;2023-12-14T06:56:40;9.40;99.90
24011;DHT22;12217;50.792;4.372;2023-12-14T06:59:06;9.10;99.90
24011;DHT22;12217;50.792;4.372;2023-12-14T07:01:31;8.90;99.90
24011;DHT22;12217;50.792;4.372;2023-12-14T07:03:57;8.80;99.90
24011;DHT22;12217;50.792;4.372;2023-12-14T07:06:23;8.70;99.90
24011;DHT22;12217;50.792;4.372;2023-12-14T07:08:48;8.70;99.90
24011;DHT22;12217;50.792;4.372;2023-12-14T07:11:14;8.90;99.90
24011;DHT22;12217;50.792;4.372;2023-12-14T07:13:40;8.80;99.90
24011;DHT22;12217;50.792;4.372;2023-12-14T07:16:12;8.90;99.90
24011;DHT22;12217;50.792;4.372;2023-12-14T07:18:39;9.00;99.90
24011;DHT22;12217;50.792;4.372;2023-12-14T07:21:06;9.10;99.90
24011;DHT22;12217;50.792;4.372;2023-12-14T07:23:32;9.00;99.90
24011;DHT22;12217;50.792;4.372;2023-12-14T07:25:57;9.10;99.90
24011;DHT22;12217;50.792;4.372;2023-12-14T07:28:23;9.00;99.90
24011;DHT22;12217;50.792;4.372;2023-12-14T07:30:49;9.10;99.90
24011;DHT22;12217;50.792;4.372;2023-12-14T07:33:15;9.10;99.90
24011;DHT22;12217;50.792;4.372;2023-12-14T07:35:41;9.20;99.90
24011;DHT22;12217;50.792;4.372;2023-12-14T07:38:08;9.00;99.90
24011;DHT22;12217;50.792;4.372;2023-12-14T07:40:34;9.00;99.90
24011;DHT22;12217;50.792;4.372;2023-12-14T07:43:00;8.90;99.90
24011;DHT22;12217;50.792;4.372;2023-12-14T07:45:26;8.90;99.90
24011;DHT22;12217;50.792;4.372;2023-12-14T07:48:06;8.90;99.90
24011;DHT22;12217;50.792;4.372;2023-12-14T07:50:36;8.80;99.90
24011;DHT22;12217;50.792;4.372;2023-12-14T07:56:21;9.10;99.90
24011;DHT22;12217;50.792;4.372;2023-12-14T07:59:02;9.10;99.90
24011;DHT22;12217;50.792;4.372;2023-12-14T08:01:35;9.30;99.90
24011;DHT22;12217;50.792;4.372;2023-12-14T08:04:01;9.30;99.90
24011;DHT22;12217;50.792;4.372;2023-12-14T08:06:27;9.40;99.90
24011;DHT22;12217;50.792;4.372;2023-12-14T08:08:53;9.20;99.90
24011;DHT22;12217;50.792;4.372;2023-12-14T08:11:18;9.30;99.90
24011;DHT22;12217;50.792;4.372;2023-12-14T08:13:44;9.50;99.90
24011;DHT22;12217;50.792;4.372;2023-12-14T08:16:12;9.50;99.90
24011;DHT22;12217;50.792;4.372;2023-12-14T08:18:38;9.50;99.90
24011;DHT22;12217;50.792;4.372;2023-12-14T08:21:04;9.50;99.90
24011;DHT22;12217;50.792;4.372;2023-12-14T08:23:29;9.50;99.90
24011;DHT22;12217;50.792;4.372;2023-12-14T08:25:56;9.40;99.90
24011;DHT22;12217;50.792;4.372;2023-12-14T08:28:25;9.50;99.90
24011;DHT22;12217;50.792;4.372;2023-12-14T08:30:51;9.50;99.90
24011;DHT22;12217;50.792;4.372;2023-12-14T08:33:17;9.50;99.90
24011;DHT22;12217;50.792;4.372;2023-12-14T08:35:43;9.60;99.90
24011;DHT22;12217;50.792;4.372;2023-12-14T08:38:09;9.60;99.90
24011;DHT22;12217;50.792;4.372;2023-12-14T08:40:35;9.70;99.90
24011;DHT22;12217;50.792;4.372;2023-12-14T08:43:01;9.70;99.90
24011;DHT22;12217;50.792;4.372;2023-12-14T08:45:28;9.60;99.90
24011;DHT22;12217;50.792;4.372;2023-12-14T08:47:53;9.50;99.90
24011;DHT22;12217;50.792;4.372;2023-12-14T08:50:22;9.60;99.90
24011;DHT22;12217;50.792;4.372;2023-12-14T08:52:48;10.00;99.90
24011;DHT22;12217;50.792;4.372;2023-12-14T08:55:13;10.20;99.90
24011;DHT22;12217;50.792;4.372;2023-12-14T08:57:39;10.40;99.90
24011;DHT22;12217;50.792;4.372;2023-12-14T09:00:06;10.50;99.90
24011;DHT22;12217;50.792;4.372;2023-12-14T09:02:35;10.50;99.90
24011;DHT22;12217;50.792;4.372;2023-12-14T09:05:03;10.30;99.90
24011;DHT22;12217;50.792;4.372;2023-12-14T09:07:35;10.20;99.90
24011;DHT22;12217;50.792;4.372;2023-12-14T09:10:01;10.10;99.90
24011;DHT22;12217;50.792;4.372;2023-12-14T09:12:27;10.20;99.90
24011;DHT22;12217;50.792;4.372;2023-12-14T09:14:53;10.10;99.90
24011;DHT22;12217;50.792;4.372;2023-12-14T09:17:18;10.20;99.90
24011;DHT22;12217;50.792;4.372;2023-12-14T09:19:44;10.10;99.90
24011;DHT22;12217;50.792;4.372;2023-12-14T09:22:10;9.90;99.90
24011;DHT22;12217;50.792;4.372;2023-12-14T09:24:35;10.00;99.90
24011;DHT22;12217;50.792;4.372;2023-12-14T09:27:01;9.90;99.90
24011;DHT22;12217;50.792;4.372;2023-12-14T09:29:27;9.60;99.90
24011;DHT22;12217;50.792;4.372;2023-12-14T09:31:54;9.90;99.90
24011;DHT22;12217;50.792;4.372;2023-12-14T09:34:20;10.00;99.90
24011;DHT22;12217;50.792;4.372;2023-12-14T09:36:45;9.80;99.90
24011;DHT22;12217;50.792;4.372;2023-12-14T09:39:11;9.50;99.90
24011;DHT22;12217;50.792;4.372;2023-12-14T09:41:37;9.40;99.90
24011;DHT22;12217;50.792;4.372;2023-12-14T09:44:16;9.40;99.90
24011;DHT22;12217;50.792;4.372;2023-12-14T09:46:51;9.70;99.90
24011;DHT22;12217;50.792;4.372;2023-12-14T09:49:17;9.80;99.90
24011;DHT22;12217;50.792;4.372;2023-12-14T09:51:43;9.50;99.90
24011;DHT22;12217;50.792;4.372;2023-12-14T09:54:09;9.20;99.90
24011;DHT22;12217;50.792;4.372;2023-12-14T09:56:34;9.40;99.90
24011;DHT22;12217;50.792;4.372;2023-12-14T09:59:01;9.70;99.90
24011;DHT22;12217;50.792;4.372;2023-12-14T10:01:30;9.90;99.90
24011;DHT22;12217;50.792;4.372;2023-12-14T10:04:13;10.00;99.90
24011;DHT22;12217;50.792;4.372;2023-12-14T10:06:40;9.70;99.90
24011;DHT22;12217;50.792;4.372;2023-12-14T10:09:06;9.70;99.90
24011;DHT22;12217;50.792;4.372;2023-12-14T10:11:39;9.80;99.90
24011;DHT22;12217;50.792;4.372;2023-12-14T10:14:25;9.80;99.90
24011;DHT22;12217;50.792;4.372;2023-12-14T10:17:22;10.00;99.90
24011;DHT22;12217;50.792;4.372;2023-12-14T10:19:57;9.60;99.90
24011;DHT22;12217;50.792;4.372;2023-12-14T10:22:26;9.90;99.90
24011;DHT22;12217;50.792;4.372;2023-12-14T10:24:53;9.90;99.90
24011;DHT22;12217;50.792;4.372;2023-12-14T10:27:19;9.90;99.90
24011;DHT22;12217;50.792;4.372;2023-12-14T10:29:45;10.10;99.90
24011;DHT22;12217;50.792;4.372;2023-12-14T10:32:12;10.10;99.90
24011;DHT22;12217;50.792;4.372;2023-12-14T10:34:38;10.30;99.90
24011;DHT22;12217;50.792;4.372;2023-12-14T10:37:05;10.40;99.90
24011;DHT22;12217;50.792;4.372;2023-12-14T10:39:33;10.50;99.90
24011;DHT22;12217;50.792;4.372;2023-12-14T10:42:02;10.60;99.90
24011;DHT22;12217;50.792;4.372;2023-12-14T10:44:30;10.70;99.90
24011;DHT22;12217;50.792;4.372;2023-12-14T10:47:00;10.60;99.90
24011;DHT22;12217;50.792;4.372;2023-12-14T10:49:31;10.40;99.90
24011;DHT22;12217;50.792;4.372;2023-12-14T10:51:59;10.30;99.90
24011;DHT22;12217;50.792;4.372;2023-12-14T10:54:26;10.40;99.90
24011;DHT22;12217;50.792;4.372;2023-12-14T10:56:56;10.20;99.90
24011;DHT22;12217;50.792;4.372;2023-12-14T10:59:26;10.20;99.90
24011;DHT22;12217;50.792;4.372;2023-12-14T11:01:53;10.00;99.90
24011;DHT22;12217;50.792;4.372;2023-12-14T11:04:45;10.20;99.90
24011;DHT22;12217;50.792;4.372;2023-12-14T11:07:18;10.10;99.90
24011;DHT22;12217;50.792;4.372;2023-12-14T11:09:47;10.10;99.90
24011;DHT22;12217;50.792;4.372;2023-12-14T11:12:14;10.30;99.90
24011;DHT22;12217;50.792;4.372;2023-12-14T11:14:45;10.30;99.90
24011;DHT22;12217;50.792;4.372;2023-12-14T11:17:33;10.60;99.90
24011;DHT22;12217;50.792;4.372;2023-12-14T11:20:24;10.80;99.90
24011;DHT22;12217;50.792;4.372;2023-12-14T11:22:51;10.70;99.90
24011;DHT22;12217;50.792;4.372;2023-12-14T11:25:23;10.60;99.90
24011;DHT22;12217;50.792;4.372;2023-12-14T11:28:03;10.50;99.90
24011;DHT22;12217;50.792;4.372;2023-12-14T11:30:30;10.40;99.90
24011;DHT22;12217;50.792;4.372;2023-12-14T11:32:56;10.30;99.90
24011;DHT22;12217;50.792;4.372;2023-12-14T11:35:21;10.40;99.90
24011;DHT22;12217;50.792;4.372;2023-12-14T11:37:47;10.20;99.90
24011;DHT22;12217;50.792;4.372;2023-12-14T11:40:12;10.00;99.90
24011;DHT22;12217;50.792;4.372;2023-12-14T11:42:41;9.70;99.90
24011;DHT22;12217;50.792;4.372;2023-12-14T11:45:07;10.00;99.90
24011;DHT22;12217;50.792;4.372;2023-12-14T11:47:33;10.10;99.90
24011;DHT22;12217;50.792;4.372;2023-12-14T11:49:59;10.30;99.90
24011;DHT22;12217;50.792;4.372;2023-12-14T11:52:24;10.20;99.90
24011;DHT22;12217;50.792;4.372;2023-12-14T11:54:50;10.20;99.90
24011;DHT22;12217;50.792;4.372;2023-12-14T11:57:16;10.30;99.90
24011;DHT22;12217;50.792;4.372;2023-12-14T11:59:42;10.10;99.90
24011;DHT22;12217;50.792;4.372;2023-12-14T12:02:07;10.00;99.90
24011;DHT22;12217;50.792;4.372;2023-12-14T12:04:33;9.80;99.90
24011;DHT22;12217;50.792;4.372;2023-12-14T12:07:03;9.90;99.90
24011;DHT22;12217;50.792;4.372;2023-12-14T12:09:41;9.80;99.90
24011;DHT22;12217;50.792;4.372;2023-12-14T12:12:11;9.90;99.90
24011;DHT22;12217;50.792;4.372;2023-12-14T12:14:38;9.70;99.90
24011;DHT22;12217;50.792;4.372;2023-12-14T12:17:05;9.50;99.90
24011;DHT22;12217;50.792;4.372;2023-12-14T12:19:35;9.50;99.90
24011;DHT22;12217;50.792;4.372;2023-12-14T12:22:02;9.50;99.90
24011;DHT22;12217;50.792;4.372;2023-12-14T12:24:27;9.60;99.90
24011;DHT22;12217;50.792;4.372;2023-12-14T12:26:54;9.50;99.90
24011;DHT22;12217;50.792;4.372;2023-12-14T12:29:20;9.30;99.90
24011;DHT22;12217;50.792;4.372;2023-12-14T12:31:45;9.40;99.90
24011;DHT22;12217;50.792;4.372;2023-12-14T12:34:12;9.30;99.90
24011;DHT22;12217;50.792;4.372;2023-12-14T12:36:38;9.30;99.90
24011;DHT22;12217;50.792;4.372;2023-12-14T12:39:04;9.60;99.90
24011;DHT22;12217;50.792;4.372;2023-12-14T12:41:32;9.70;99.90
24011;DHT22;12217;50.792;4.372;2023-12-14T12:43:58;9.90;99.90
24011;DHT22;12217;50.792;4.372;2023-12-14T12:46:34;9.60;99.90
24011;DHT22;12217;50.792;4.372;2023-12-14T12:49:01;9.70;99.90
24011;DHT22;12217;50.792;4.372;2023-12-14T12:51:27;9.60;99.90
24011;DHT22;12217;50.792;4.372;2023-12-14T12:53:54;9.40;99.90
24011;DHT22;12217;50.792;4.372;2023-12-14T12:56:20;9.20;99.90
24011;DHT22;12217;50.792;4.372;2023-12-14T12:58:46;9.30;99.90
24011;DHT22;12217;50.792;4.372;2023-12-14T13:01:12;9.50;99.90
24011;DHT22;12217;50.792;4.372;2023-12-14T13:03:37;9.30;99.90
24011;DHT22;12217;50.792;4.372;2023-12-14T13:06:03;9.40;99.90
24011;DHT22;12217;50.792;4.372;2023-12-14T13:08:29;9.50;99.90
24011;DHT22;12217;50.792;4.372;2023-12-14T13:10:55;9.60;99.90
24011;DHT22;12217;50.792;4.372;2023-12-14T13:13:23;9.70;99.90
24011;DHT22;12217;50.792;4.372;2023-12-14T13:15:49;9.80;99.90
24011;DHT22;12217;50.792;4.372;2023-12-14T13:18:18;9.70;99.90
24011;DHT22;12217;50.792;4.372;2023-12-14T13:20:47;9.70;99.90
24011;DHT22;12217;50.792;4.372;2023-12-14T13:23:13;9.60;99.90
24011;DHT22;12217;50.792;4.372;2023-12-14T13:25:39;9.60;99.90
24011;DHT22;12217;50.792;4.372;2023-12-14T13:28:05;9.70;99.90
24011;DHT22;12217;50.792;4.372;2023-12-14T13:30:30;9.80;99.90
24011;DHT22;12217;50.792;4.372;2023-12-14T13:32:56;9.90;99.90
24011;DHT22;12217;50.792;4.372;2023-12-14T13:35:22;10.10;99.90
24011;DHT22;12217;50.792;4.372;2023-12-14T13:37:50;10.00;99.90
24011;DHT22;12217;50.792;4.372;2023-12-14T13:40:15;9.80;99.90
24011;DHT22;12217;50.792;4.372;2023-12-14T13:42:42;9.60;99.90
24011;DHT22;12217;50.792;4.372;2023-12-14T13:45:08;9.70;99.90
24011;DHT22;12217;50.792;4.372;2023-12-14T13:47:34;9.80;99.90
24011;DHT22;12217;50.792;4.372;2023-12-14T13:49:59;9.60;99.90
24011;DHT22;12217;50.792;4.372;2023-12-14T13:52:25;9.50;99.90
24011;DHT22;12217;50.792;4.372;2023-12-14T13:54:50;9.60;99.90
24011;DHT22;12217;50.792;4.372;2023-12-14T13:57:17;9.90;99.90
24011;DHT22;12217;50.792;4.372;2023-12-14T13:59:42;9.90;99.90
24011;DHT22;12217;50.792;4.372;2023-12-14T14:02:08;10.20;99.90
24011;DHT22;12217;50.792;4.372;2023-12-14T14:04:34;10.10;99.90
24011;DHT22;12217;50.792;4.372;2023-12-14T14:07:00;10.10;99.90
24011;DHT22;12217;50.792;4.372;2023-12-14T14:09:26;10.20;99.90
24011;DHT22;12217;50.792;4.372;2023-12-14T14:11:51;10.20;99.90
24011;DHT22;12217;50.792;4.372;2023-12-14T14:14:17;10.30;99.90
24011;DHT22;12217;50.792;4.372;2023-12-14T14:16:43;10.30;99.90
24011;DHT22;12217;50.792;4.372;2023-12-14T14:19:08;10.30;99.90
24011;DHT22;12217;50.792;4.372;2023-12-14T14:21:34;10.50;99.90
24011;DHT22;12217;50.792;4.372;2023-12-14T14:24:00;10.60;99.90
24011;DHT22;12217;50.792;4.372;2023-12-14T14:26:26;10.30;99.90
24011;DHT22;12217;50.792;4.372;2023-12-14T14:28:51;10.00;99.90
24011;DHT22;12217;50.792;4.372;2023-12-14T14:31:19;9.90;99.90
24011;DHT22;12217;50.792;4.372;2023-12-14T14:33:45;10.00;99.90
24011;DHT22;12217;50.792;4.372;2023-12-14T14:36:12;10.00;99.90
24011;DHT22;12217;50.792;4.372;2023-12-14T14:38:38;9.90;99.90
24011;DHT22;12217;50.792;4.372;2023-12-14T14:41:09;10.10;99.90
24011;DHT22;12217;50.792;4.372;2023-12-14T14:43:34;9.90;99.90
24011;DHT22;12217;50.792;4.372;2023-12-14T14:46:00;9.90;99.90
24011;DHT22;12217;50.792;4.372;2023-12-14T14:48:26;9.80;99.90
24011;DHT22;12217;50.792;4.372;2023-12-14T14:50:52;9.80;99.90
24011;DHT22;12217;50.792;4.372;2023-12-14T14:53:19;9.60;99.90
24011;DHT22;12217;50.792;4.372;2023-12-14T14:55:46;9.70;99.90
24011;DHT22;12217;50.792;4.372;2023-12-14T14:58:11;9.70;99.90
24011;DHT22;12217;50.792;4.372;2023-12-14T15:00:37;9.80;99.90
24011;DHT22;12217;50.792;4.372;2023-12-14T15:03:04;10.00;99.90
24011;DHT22;12217;50.792;4.372;2023-12-14T15:05:34;9.90;99.90
24011;DHT22;12217;50.792;4.372;2023-12-14T15:08:00;9.90;99.90
24011;DHT22;12217;50.792;4.372;2023-12-14T15:10:28;9.70;99.90
24011;DHT22;12217;50.792;4.372;2023-12-14T15:12:54;9.70;99.90
24011;DHT22;12217;50.792;4.372;2023-12-14T15:15:19;9.70;99.90
24011;DHT22;12217;50.792;4.372;2023-12-14T15:17:45;9.90;99.90
24011;DHT22;12217;50.792;4.372;2023-12-14T15:20:11;9.90;99.90
24011;DHT22;12217;50.792;4.372;2023-12-14T15:22:36;10.00;99.90
24011;DHT22;12217;50.792;4.372;2023-12-14T15:25:02;9.90;99.90
24011;DHT22;12217;50.792;4.372;2023-12-14T15:27:29;9.90;99.90
24011;DHT22;12217;50.792;4.372;2023-12-14T15:29:56;9.80;99.90
24011;DHT22;12217;50.792;4.372;2023-12-14T15:32:22;9.60;99.90
24011;DHT22;12217;50.792;4.372;2023-12-14T15:34:48;9.60;99.90
24011;DHT22;12217;50.792;4.372;2023-12-14T15:37:14;9.60;99.90
24011;DHT22;12217;50.792;4.372;2023-12-14T15:39:40;9.60;99.90